createdAt,value
2018-09-04T00:04:19.340Z,31.30
2018-09-04T00:20:18.557Z,28.93
2018-09-04T00:25:22.348Z,29.30
2018-09-04T00:30:26.394Z,28.03
2018-09-04T00:35:30.484Z,31.17
2018-09-04T00:40:34.427Z,36.27
2018-09-04T00:45:54.306Z,33.90
2018-09-04T00:50:57.935Z,34.83
2018-09-04T00:56:01.683Z,35.87
2018-09-04T01:01:05.407Z,38.60
2018-09-04T01:06:09.219Z,38.60
2018-09-04T01:11:13.220Z,40.30
2018-09-04T01:16:17.619Z,38.37
2018-09-04T01:21:21.242Z,36.03
2018-09-04T01:26:25.138Z,33.50
2018-09-04T01:31:28.928Z,38.97
2018-09-04T01:36:40.191Z,34.33
2018-09-04T01:41:57.224Z,36.53
2018-09-04T01:47:12.903Z,36.77
2018-09-04T01:52:16.640Z,40.37
2018-09-04T01:57:20.877Z,39.43
2018-09-04T02:02:25.637Z,36.03
2018-09-04T02:07:29.479Z,37.10
2018-09-04T02:12:33.713Z,38.70
2018-09-04T02:17:37.475Z,36.90
2018-09-04T02:22:41.411Z,35.73
2018-09-04T02:27:45.396Z,36.93
2018-09-04T02:32:49.211Z,38.97
2018-09-04T02:43:24.435Z,35.97
2018-09-04T02:48:28.518Z,36.13
2018-09-04T02:53:32.487Z,34.57
2018-09-04T02:58:42.280Z,34.00
2018-09-04T03:03:45.913Z,34.83
2018-09-04T03:25:13.909Z,34.00
2018-09-04T03:30:18.222Z,33.10
2018-09-04T03:35:22.259Z,33.80
2018-09-04T03:40:26.610Z,33.87
2018-09-04T03:45:30.495Z,33.00
2018-09-04T03:50:34.750Z,32.83
2018-09-04T03:55:38.998Z,32.93
2018-09-04T04:00:42.916Z,34.03
2018-09-04T04:05:46.645Z,33.23
2018-09-04T04:10:50.562Z,34.50
2018-09-04T04:15:55.367Z,32.37
2018-09-04T04:21:00.368Z,30.93
2018-09-04T04:26:04.665Z,29.47
2018-09-04T04:31:08.489Z,31.77
2018-09-04T04:36:12.289Z,31.07
2018-09-04T04:41:16.892Z,29.53
2018-09-04T04:46:21.466Z,29.80
2018-09-04T04:51:25.638Z,30.67
2018-09-04T04:56:29.416Z,29.93
2018-09-04T05:01:33.173Z,31.47
2018-09-04T05:06:37.451Z,30.07
2018-09-04T05:11:41.675Z,29.30
2018-09-04T05:16:45.619Z,28.37
2018-09-04T05:21:49.547Z,30.33
2018-09-04T05:26:53.328Z,30.10
2018-09-04T05:32:02.439Z,29.43
2018-09-04T05:37:06.569Z,31.50
2018-09-04T05:42:15.852Z,31.30
2018-09-04T05:47:19.685Z,29.90
2018-09-04T05:52:23.612Z,30.83
2018-09-04T05:57:28.176Z,31.70
2018-09-04T06:02:32.514Z,30.77
2018-09-04T06:07:36.586Z,34.07
2018-09-04T06:12:40.581Z,33.33
2018-09-04T06:17:44.331Z,31.77
2018-09-04T06:22:48.521Z,32.73
2018-09-04T06:27:52.551Z,35.90
2018-09-04T06:32:56.984Z,35.87
2018-09-04T06:38:00.901Z,34.23
2018-09-04T06:43:04.882Z,36.10
2018-09-04T06:48:13.023Z,35.93
2018-09-04T06:53:16.947Z,37.13
2018-09-04T06:58:24.918Z,39.53
2018-09-04T07:03:28.668Z,50.07
2018-09-04T07:08:32.538Z,41.43
2018-09-04T07:13:36.299Z,43.53
2018-09-04T07:24:09.420Z,53.67
2018-09-04T07:29:17.458Z,53.63
2018-09-04T07:34:21.152Z,55.90
2018-09-04T07:39:39.287Z,57.73
2018-09-04T07:44:43.205Z,57.70
2018-09-04T07:49:47.252Z,57.90
2018-09-04T07:54:51.168Z,59.03
2018-09-04T07:59:55.152Z,57.00
2018-09-04T08:04:59.003Z,61.90
2018-09-04T08:10:02.852Z,59.57
2018-09-04T08:15:06.887Z,60.30
2018-09-04T08:20:10.720Z,60.50
2018-09-04T08:25:15.039Z,58.50
2018-09-04T08:30:19.013Z,59.23
2018-09-04T08:35:22.844Z,63.10
2018-09-04T08:40:33.087Z,61.40
2018-09-04T08:45:36.844Z,59.23
2018-09-04T08:50:40.565Z,62.40
2018-09-04T08:55:44.838Z,61.00
2018-09-04T09:00:48.696Z,59.30
2018-09-04T09:05:52.729Z,58.27
2018-09-04T09:10:56.534Z,59.43
2018-09-04T09:16:00.757Z,57.70
2018-09-04T09:21:04.616Z,59.40
2018-09-04T09:26:08.522Z,58.63
2018-09-04T09:31:12.440Z,59.27
2018-09-04T09:36:16.181Z,51.57
2018-09-04T09:41:19.969Z,52.97
2018-09-04T09:52:04.124Z,46.63
2018-09-04T09:57:08.099Z,46.20
2018-09-04T10:02:17.128Z,48.97
2018-09-04T10:07:20.958Z,46.60
2018-09-04T10:12:24.881Z,45.30
2018-09-04T10:17:28.722Z,43.73
2018-09-04T10:22:32.599Z,46.90
2018-09-04T10:27:40.231Z,43.03
2018-09-04T10:32:51.596Z,43.40
2018-09-04T10:37:55.313Z,38.73
2018-09-04T10:42:59.135Z,37.80
2018-09-04T10:48:03.040Z,41.37
2018-09-04T10:53:07.407Z,35.20
2018-09-04T10:58:12.352Z,35.90
2018-09-04T11:03:16.191Z,35.93
2018-09-04T11:08:20.712Z,30.83
2018-09-04T11:13:24.749Z,32.23
2018-09-04T11:18:32.229Z,29.47
2018-09-04T11:23:36.109Z,25.97
2018-09-04T11:28:43.678Z,29.23
2018-09-04T11:33:47.643Z,28.27
2018-09-04T11:38:53.623Z,29.73
2018-09-04T11:43:57.529Z,27.77
2018-09-04T11:54:29.535Z,28.90
2018-09-04T11:59:44.040Z,23.33
2018-09-04T12:04:48.186Z,22.50
2018-09-04T12:09:52.036Z,21.27
2018-09-04T12:14:55.896Z,20.47
2018-09-04T12:20:25.808Z,20.10
2018-09-04T12:25:29.880Z,19.43
2018-09-04T12:30:34.306Z,18.00
2018-09-04T12:35:38.148Z,18.70
2018-09-04T12:40:42.628Z,16.83
2018-09-04T12:45:57.580Z,18.80
2018-09-04T12:51:02.449Z,18.13
2018-09-04T12:56:06.503Z,19.73
2018-09-04T13:01:10.502Z,19.93
2018-09-04T13:06:14.693Z,18.37
2018-09-04T13:11:18.600Z,19.60
2018-09-04T13:16:22.618Z,19.45
2018-09-04T13:21:26.381Z,20.27
2018-09-04T13:26:30.237Z,21.10
2018-09-04T13:31:34.249Z,22.13
2018-09-04T13:36:38.073Z,25.07
2018-09-04T13:41:41.719Z,22.43
2018-09-04T13:46:45.492Z,20.02
2018-09-04T13:51:49.267Z,17.67
2018-09-04T13:56:53.049Z,20.07
2018-09-04T14:01:56.825Z,19.53
2018-09-04T14:07:00.748Z,17.77
2018-09-04T14:12:04.985Z,17.03
2018-09-04T14:17:11.877Z,17.13
2018-09-04T14:22:16.551Z,16.93
2018-09-04T14:27:23.477Z,17.17
2018-09-04T14:32:27.826Z,16.40
2018-09-04T14:37:32.011Z,16.62
2018-09-04T14:42:35.672Z,15.88
2018-09-04T14:47:39.885Z,16.07
2018-09-04T14:52:44.176Z,15.88
2018-09-04T14:57:48.144Z,15.95
2018-09-04T15:02:52.240Z,15.60
2018-09-04T15:07:56.004Z,14.90
2018-09-04T15:12:59.981Z,16.82
2018-09-04T15:18:03.860Z,15.75
2018-09-04T15:23:07.549Z,14.78
2018-09-04T15:28:11.241Z,16.00
2018-09-04T15:33:14.922Z,15.48
2018-09-04T15:38:30.274Z,15.67
2018-09-04T15:43:34.296Z,14.15
2018-09-04T15:48:38.618Z,14.28
2018-09-04T15:53:42.460Z,15.10
2018-09-04T15:58:46.748Z,15.32
2018-09-04T16:03:50.572Z,13.15
2018-09-04T16:08:56.877Z,9.63
2018-09-04T16:14:01.009Z,8.90
2018-09-04T16:19:10.885Z,9.67
2018-09-04T16:24:14.702Z,11.23
2018-09-04T16:29:20.348Z,12.83
2018-09-04T16:34:24.318Z,13.43
2018-09-04T16:39:28.515Z,13.47
2018-09-04T16:44:32.514Z,13.93
2018-09-04T16:49:36.624Z,14.10
2018-09-04T16:54:40.257Z,15.37
2018-09-04T16:59:44.105Z,16.20
2018-09-04T17:04:48.105Z,15.40
2018-09-04T17:09:51.788Z,15.37
2018-09-04T17:14:55.736Z,15.43
2018-09-04T17:19:59.763Z,15.07
2018-09-04T17:25:03.537Z,14.17
2018-09-04T17:30:07.449Z,15.07
2018-09-04T17:35:11.616Z,14.10
2018-09-04T17:40:15.712Z,13.33
2018-09-04T17:45:19.844Z,14.03
2018-09-04T17:50:23.636Z,14.63
2018-09-04T17:55:27.432Z,14.33
2018-09-04T18:00:31.467Z,14.27
2018-09-04T18:05:35.252Z,14.17
2018-09-04T18:10:39.036Z,15.47
2018-09-04T18:15:42.892Z,14.43
2018-09-04T18:20:46.612Z,14.97
2018-09-04T18:25:50.413Z,13.13
2018-09-04T18:30:54.228Z,13.27
2018-09-04T18:35:58.051Z,14.27
2018-09-04T18:41:01.862Z,12.83
2018-09-04T18:46:05.646Z,12.57
2018-09-04T18:51:09.421Z,12.73
2018-09-04T18:56:13.110Z,13.07
2018-09-04T19:01:17.023Z,13.20
2018-09-04T19:06:21.027Z,12.80
2018-09-04T19:11:24.998Z,12.83
2018-09-04T19:16:29.041Z,12.83
2018-09-04T19:21:33.088Z,12.27
2018-09-04T19:26:36.894Z,12.87
2018-09-04T19:31:40.867Z,13.47
2018-09-04T19:36:44.704Z,12.60
2018-09-04T19:41:48.816Z,11.80
2018-09-04T19:46:52.578Z,12.50
2018-09-04T19:51:56.414Z,12.47
2018-09-04T19:57:00.447Z,13.87
2018-09-04T20:02:04.370Z,12.90
2018-09-04T20:07:08.873Z,12.83
2018-09-04T20:12:12.756Z,12.67
2018-09-04T20:17:16.479Z,12.50
2018-09-04T20:22:20.204Z,12.83
2018-09-04T20:27:24.072Z,12.30
2018-09-04T20:32:28.156Z,11.57
2018-09-04T20:37:32.129Z,12.60
2018-09-04T20:42:35.837Z,12.10
2018-09-04T20:47:39.955Z,12.07
2018-09-04T20:52:43.896Z,11.80
2018-09-04T20:57:58.797Z,13.33
2018-09-04T21:03:13.702Z,12.83
2018-09-04T21:08:39.152Z,12.23
2018-09-04T21:13:43.135Z,13.23
2018-09-04T21:18:51.051Z,13.23
2018-09-04T21:23:55.060Z,12.47
2018-09-04T21:29:02.321Z,12.67
2018-09-04T21:34:06.099Z,12.73
2018-09-04T21:39:21.980Z,13.07
2018-09-04T21:44:25.958Z,12.93
2018-09-04T21:49:41.718Z,12.90
2018-09-04T21:54:45.445Z,12.77
2018-09-04T21:59:49.524Z,13.00
2018-09-04T22:04:53.308Z,12.90
2018-09-04T22:09:57.612Z,12.83
2018-09-04T22:15:02.084Z,13.23
2018-09-04T22:20:05.902Z,13.07
2018-09-04T22:25:09.531Z,13.03
2018-09-04T22:30:22.772Z,13.13
2018-09-04T22:35:27.314Z,12.97
2018-09-04T22:40:31.610Z,13.73
2018-09-04T22:45:35.708Z,15.53
2018-09-04T22:50:45.035Z,14.33
2018-09-04T22:55:48.827Z,14.33
2018-09-04T23:00:52.555Z,13.37
2018-09-04T23:06:30.126Z,13.60
2018-09-04T23:11:34.165Z,13.10
2018-09-04T23:16:38.286Z,13.53
2018-09-04T23:21:42.171Z,14.53
2018-09-04T23:26:46.244Z,13.33
2018-09-04T23:31:50.208Z,14.23
2018-09-04T23:36:54.255Z,13.63
2018-09-04T23:41:58.040Z,14.90
2018-09-04T23:47:02.140Z,13.90
2018-09-04T23:52:06.315Z,16.00
2018-09-04T23:57:10.396Z,15.80
